Time;durP1;ratioP1;P1;durP2;ratioP2;P2;SDS_P1;SDS_P2;PMS_P1;PMS_P2;Temp;Humidity;BMP_temperature;BMP_pressure;BME280_temperature;BME280_humidity;BME280_pressure;Samples;Min_cycle;Max_cycle;Signal;HPM_P1;HPM_P2
2023/07/29 00:00:07;;;;;;;3.00;1.65;;;;;;;18.39;100.00;99845.09;7702186;23;20794;-95
2023/07/29 00:03:15;;;;;;;1.63;1.30;;;;;;;18.34;100.00;99845.66;7701980;23;20103;-95
2023/07/29 00:06:17;;;;;;;1.67;1.25;;;;;;;18.31;100.00;99853.91;7702180;23;20020;-96
2023/07/29 00:09:19;;;;;;;1.67;1.40;;;;;;;18.33;100.00;99851.88;7700472;23;20024;-95
2023/07/29 00:12:20;;;;;;;1.85;1.33;;;;;;;18.29;100.00;99848.84;7702085;23;20017;-96
2023/07/29 00:15:22;;;;;;;1.42;1.33;;;;;;;18.23;100.00;99846.97;7699350;23;20353;-94
2023/07/29 00:18:24;;;;;;;1.75;1.38;;;;;;;18.16;100.00;99848.75;7674622;23;20020;-95
2023/07/29 00:21:26;;;;;;;2.47;1.20;;;;;;;18.13;100.00;99859.56;7701178;23;20485;-95
2023/07/29 00:24:28;;;;;;;1.55;1.40;;;;;;;18.11;100.00;99855.50;7702337;23;20332;-95
2023/07/29 00:27:29;;;;;;;1.58;1.48;;;;;;;18.08;100.00;99861.94;7701691;23;20331;-95
2023/07/29 00:30:31;;;;;;;2.05;1.50;;;;;;;18.03;100.00;99861.69;7672813;23;20536;-96
2023/07/29 00:33:33;;;;;;;1.77;1.58;;;;;;;18.01;100.00;99858.44;7674687;23;20070;-96
2023/07/29 00:36:35;;;;;;;1.58;1.30;;;;;;;17.98;100.00;99853.56;7674445;23;20020;-95
2023/07/29 00:39:37;;;;;;;2.13;1.67;;;;;;;17.97;100.00;99857.22;7700821;23;20025;-95
2023/07/29 00:42:39;;;;;;;2.00;1.77;;;;;;;17.94;100.00;99854.97;7700991;23;20412;-95
2023/07/29 00:45:44;;;;;;;2.15;1.83;;;;;;;17.91;100.00;99863.97;7675069;23;20032;-96
2023/07/29 00:48:48;;;;;;;1.40;1.30;;;;;;;17.88;100.00;99864.34;7675343;23;20025;-95
2023/07/29 00:51:50;;;;;;;1.50;1.40;;;;;;;17.85;100.00;99856.88;7700837;23;20218;-95
2023/07/29 00:54:52;;;;;;;1.95;1.75;;;;;;;17.81;100.00;99859.06;7673257;23;20102;-95
2023/07/29 00:57:54;;;;;;;1.45;1.35;;;;;;;17.79;100.00;99865.44;7699174;23;20020;-96
2023/07/29 01:00:57;;;;;;;3.33;1.58;;;;;;;17.74;100.00;99857.31;7673176;23;20040;-95
2023/07/29 01:03:59;;;;;;;1.67;1.58;;;;;;;17.69;100.00;99864.91;7699751;23;20040;-95
2023/07/29 01:07:23;;;;;;;2.97;1.67;;;;;;;17.68;100.00;99866.72;7699468;23;20282;-95
2023/07/29 01:10:45;;;;;;;1.50;1.40;;;;;;;17.70;100.00;99862.13;7699330;23;20098;-95
2023/07/29 01:13:54;;;;;;;2.30;1.52;;;;;;;17.75;100.00;99853.72;7701705;23;20016;-95
2023/07/29 01:17:02;;;;;;;1.80;1.70;;;;;;;17.76;100.00;99850.09;7699123;23;20047;-95
2023/07/29 01:20:09;;;;;;;1.73;1.60;;;;;;;17.72;100.00;99844.41;7701735;23;20101;-95
2023/07/29 01:23:10;;;;;;;1.63;1.52;;;;;;;17.68;100.00;99837.13;7698952;23;20169;-96
2023/07/29 01:26:12;;;;;;;2.58;1.60;;;;;;;17.64;100.00;99831.47;7674591;23;20020;-96
2023/07/29 01:29:15;;;;;;;1.80;1.70;;;;;;;17.61;100.00;99830.00;7700665;23;20055;-95
2023/07/29 01:32:39;;;;;;;1.70;1.60;;;;;;;17.63;100.00;99835.03;7698070;23;20016;-96
2023/07/29 01:35:52;;;;;;;2.10;1.90;;;;;;;17.72;100.00;99843.63;7698246;23;20029;-96
2023/07/29 01:38:56;;;;;;;2.42;1.80;;;;;;;17.86;100.00;99837.53;7674011;23;20497;-96
2023/07/29 01:41:58;;;;;;;2.50;1.98;;;;;;;18.02;100.00;99839.13;7700125;23;20023;-95
2023/07/29 01:45:03;;;;;;;1.98;1.48;;;;;;;18.14;100.00;99839.44;7699286;23;20482;-96
2023/07/29 01:48:05;;;;;;;2.10;1.70;;;;;;;18.22;100.00;99842.75;7699881;23;20560;-95
2023/07/29 01:51:09;;;;;;;2.20;1.50;;;;;;;18.29;100.00;99843.63;7698649;23;20020;-95
2023/07/29 01:54:12;;;;;;;2.53;1.77;;;;;;;18.35;100.00;99836.78;7673783;23;20030;-96
2023/07/29 01:57:14;;;;;;;1.90;1.73;;;;;;;18.39;100.00;99840.66;7698773;23;20028;-95
2023/07/29 02:00:16;;;;;;;2.35;1.83;;;;;;;18.40;100.00;99829.19;7698098;23;20036;-95
2023/07/29 02:03:19;;;;;;;1.65;1.55;;;;;;;18.45;100.00;99831.22;7698784;23;20446;-96
2023/07/29 02:06:21;;;;;;;2.20;1.73;;;;;;;18.46;100.00;99817.16;7698154;23;20071;-95
2023/07/29 02:09:25;;;;;;;1.63;1.52;;;;;;;18.47;100.00;99826.63;7674548;23;20028;-96
2023/07/29 02:12:27;;;;;;;1.90;1.80;;;;;;;18.49;100.00;99819.38;7673825;23;20066;-95
2023/07/29 02:15:28;;;;;;;1.95;1.75;;;;;;;18.50;100.00;99815.75;7700472;23;20031;-95
2023/07/29 02:18:30;;;;;;;2.63;1.70;;;;;;;18.49;100.00;99817.56;7674210;23;20404;-96
2023/07/29 02:21:33;;;;;;;2.35;1.70;;;;;;;18.47;100.00;99805.66;7698871;23;20031;-96
2023/07/29 02:24:34;;;;;;;2.20;1.70;;;;;;;18.47;100.00;99803.84;7699162;23;20499;-96
2023/07/29 02:27:36;;;;;;;2.13;1.70;;;;;;;18.45;100.00;99802.41;7699492;23;20446;-95
2023/07/29 02:30:43;;;;;;;2.00;1.85;;;;;;;18.43;100.00;99793.91;7698779;23;20426;-96
2023/07/29 02:33:45;;;;;;;2.85;1.75;;;;;;;18.40;100.00;99799.53;7674116;23;20028;-95
2023/07/29 02:36:48;;;;;;;1.92;1.60;;;;;;;18.37;100.00;99799.94;7698356;23;20103;-95
2023/07/29 02:39:49;;;;;;;2.08;1.70;;;;;;;18.39;100.00;99803.97;7673524;23;20035;-95
2023/07/29 02:42:51;;;;;;;1.67;1.58;;;;;;;18.37;100.00;99802.56;7701675;23;20017;-95
2023/07/29 02:45:53;;;;;;;2.40;1.60;;;;;;;18.36;100.00;99799.13;7698864;23;20024;-96
2023/07/29 02:48:55;;;;;;;2.83;1.75;;;;;;;18.37;100.00;99807.78;7699451;23;20032;-96
2023/07/29 02:51:57;;;;;;;1.65;1.55;;;;;;;18.36;100.00;99803.53;7699337;23;20052;-96
2023/07/29 02:54:58;;;;;;;1.92;1.65;;;;;;;18.34;100.00;99806.38;7698568;23;20025;-94
2023/07/29 02:58:00;;;;;;;2.83;1.70;;;;;;;18.34;100.00;99813.41;7700975;23;20012;-96
2023/07/29 03:01:04;;;;;;;2.10;1.80;;;;;;;18.32;100.00;99810.19;7702996;23;20024;-96
2023/07/29 03:04:06;;;;;;;2.28;1.80;;;;;;;18.31;100.00;99814.63;7675311;23;20465;-95
2023/07/29 03:07:08;;;;;;;3.25;1.80;;;;;;;18.29;100.00;99817.41;7700628;23;20031;-95
2023/07/29 03:10:11;;;;;;;2.42;1.67;;;;;;;18.29;100.00;99820.03;7675893;23;20055;-96
2023/07/29 03:13:12;;;;;;;1.95;1.75;;;;;;;18.30;100.00;99810.34;7675559;23;20028;-95
2023/07/29 03:16:16;;;;;;;1.92;1.63;;;;;;;18.30;100.00;99792.81;7702357;23;20534;-95
2023/07/29 03:19:26;;;;;;;2.28;1.70;;;;;;;18.30;100.00;99790.19;7677928;23;20029;-95
2023/07/29 03:22:28;;;;;;;1.88;1.58;;;;;;;18.30;100.00;99790.19;7700941;23;20036;-95
2023/07/29 03:25:30;;;;;;;2.28;1.80;;;;;;;18.29;100.00;99780.72;7703204;23;20593;-96
2023/07/29 03:28:33;;;;;;;2.03;1.83;;;;;;;18.30;100.00;99784.97;7676338;23;20024;-95
2023/07/29 03:31:35;;;;;;;1.52;1.42;;;;;;;18.32;100.00;99784.78;7701457;23;20031;-95
2023/07/29 03:34:37;;;;;;;2.65;2.00;;;;;;;18.35;100.00;99794.06;7675416;23;20029;-95
2023/07/29 03:37:39;;;;;;;2.65;1.73;;;;;;;18.35;100.00;99792.25;7700312;23;20025;-95
2023/07/29 03:40:41;;;;;;;1.80;1.70;;;;;;;18.36;100.00;99787.81;7700938;23;20025;-95
2023/07/29 03:43:43;;;;;;;2.53;2.20;;;;;;;18.39;100.00;99777.78;7675724;23;20020;-96
2023/07/29 03:46:45;;;;;;;3.10;1.67;;;;;;;18.42;100.00;99779.22;7675231;23;20027;-96
2023/07/29 03:49:47;;;;;;;3.05;1.63;;;;;;;18.43;100.00;99773.78;7675071;23;20385;-95
2023/07/29 03:52:53;;;;;;;2.22;1.63;;;;;;;18.46;100.00;99776.03;7673072;23;20491;-96
2023/07/29 03:55:55;;;;;;;2.10;1.90;;;;;;;18.46;100.00;99772.59;7702345;23;20264;-95
2023/07/29 03:59:04;;;;;;;2.15;1.55;;;;;;;18.44;100.00;99770.16;7674687;23;20034;-96
2023/07/29 04:02:07;;;;;;;2.13;1.60;;;;;;;18.45;100.00;99777.00;7700137;23;20028;-95
2023/07/29 04:05:09;;;;;;;1.73;1.63;;;;;;;18.46;100.00;99777.84;7700223;23;20025;-96
2023/07/29 04:08:11;;;;;;;4.35;1.70;;;;;;;18.41;100.00;99775.78;7675552;23;20020;-91
2023/07/29 04:11:13;;;;;;;1.92;1.80;;;;;;;18.26;100.00;99765.41;7675217;23;20021;-90
2023/07/29 04:14:15;;;;;;;2.45;1.70;;;;;;;18.16;100.00;99777.19;7701660;23;20025;-92
2023/07/29 04:17:17;;;;;;;2.60;2.13;;;;;;;18.06;100.00;99769.63;7675394;23;20021;-94
2023/07/29 04:20:18;;;;;;;2.22;2.00;;;;;;;18.00;100.00;99773.81;7699699;23;20024;-94
2023/07/29 04:23:20;;;;;;;1.83;1.70;;;;;;;17.99;100.00;99779.28;7700274;23;20055;-94
2023/07/29 04:26:25;;;;;;;2.15;2.00;;;;;;;17.98;100.00;99782.88;7674180;23;20415;-94
2023/07/29 04:29:27;;;;;;;2.10;1.83;;;;;;;17.95;100.00;99785.88;7699649;23;20048;-94
2023/07/29 04:32:29;;;;;;;2.20;1.95;;;;;;;17.90;100.00;99794.28;7702114;23;20339;-95
2023/07/29 04:35:30;;;;;;;2.33;2.03;;;;;;;17.89;100.00;99794.47;7699305;23;20030;-94
2023/07/29 04:38:33;;;;;;;2.47;2.10;;;;;;;17.89;100.00;99787.44;7674601;23;20070;-94
2023/07/29 04:41:35;;;;;;;1.67;1.58;;;;;;;17.82;100.00;99787.38;7701639;23;20025;-94
2023/07/29 04:44:37;;;;;;;2.88;2.00;;;;;;;17.81;100.00;99792.78;7702216;23;20024;-94
2023/07/29 04:47:39;;;;;;;1.98;1.77;;;;;;;17.83;100.00;99796.03;7675024;23;20095;-95
2023/07/29 04:50:41;;;;;;;2.22;2.00;;;;;;;17.81;100.00;99793.63;7699498;23;20359;-93
2023/07/29 04:53:43;;;;;;;2.58;1.70;;;;;;;17.84;100.00;99806.31;7674934;23;20399;-94
2023/07/29 04:56:44;;;;;;;3.30;1.90;;;;;;;17.86;100.00;99812.19;7701690;23;20095;-94
2023/07/29 04:59:46;;;;;;;2.65;2.03;;;;;;;17.90;100.00;99807.38;7700780;23;20024;-91
2023/07/29 05:02:49;;;;;;;2.55;1.95;;;;;;;17.96;100.00;99803.19;7699477;23;20447;-91
2023/07/29 05:05:53;;;;;;;2.13;1.85;;;;;;;18.05;100.00;99804.69;7702243;23;20510;-92
2023/07/29 05:08:57;;;;;;;2.17;1.98;;;;;;;18.12;100.00;99795.09;7699603;23;20477;-93
2023/07/29 05:11:59;;;;;;;2.20;2.00;;;;;;;18.13;100.00;99788.03;7674908;23;20031;-95
2023/07/29 05:15:05;;;;;;;2.22;2.00;;;;;;;18.12;100.00;99781.19;7702305;23;20020;-94
2023/07/29 05:18:06;;;;;;;2.30;2.10;;;;;;;18.09;100.00;99777.16;7701677;23;20205;-95
2023/07/29 05:21:08;;;;;;;4.20;2.10;;;;;;;18.11;100.00;99777.78;7700838;23;20414;-94
2023/07/29 05:24:11;;;;;;;1.77;1.67;;;;;;;18.19;100.00;99766.34;7675181;23;20505;-94
2023/07/29 05:27:12;;;;;;;3.70;1.92;;;;;;;18.23;100.00;99768.38;7674613;23;20021;-94
2023/07/29 05:30:14;;;;;;;3.30;2.28;;;;;;;18.32;100.00;99765.63;7699040;23;20694;-94
2023/07/29 05:33:17;;;;;;;2.22;2.03;;;;;;;18.40;100.00;99761.03;7699729;23;20059;-94
2023/07/29 05:36:18;;;;;;;2.63;1.77;;;;;;;18.50;100.00;99758.09;7699722;23;20052;-89
2023/07/29 05:39:20;;;;;;;4.20;2.00;;;;;;;18.61;100.00;99756.78;7701498;23;20560;-89
2023/07/29 05:42:22;;;;;;;3.13;2.10;;;;;;;18.66;100.00;99762.25;7698889;23;20016;-88
2023/07/29 05:45:24;;;;;;;4.82;2.30;;;;;;;18.69;100.00;99762.66;7674495;23;20577;-88
2023/07/29 05:48:27;;;;;;;1.73;1.63;;;;;;;18.72;100.00;99767.50;7699804;23;20021;-89
2023/07/29 05:51:29;;;;;;;2.55;1.92;;;;;;;18.71;100.00;99760.66;7699477;23;20533;-89
2023/07/29 05:54:31;;;;;;;3.40;2.10;;;;;;;18.69;100.00;99773.13;7700923;23;20042;-89
2023/07/29 05:57:32;;;;;;;3.10;1.95;;;;;;;18.69;100.00;99773.13;7698929;23;20020;-89
2023/07/29 06:00:34;;;;;;;3.10;1.90;;;;;;;18.66;100.00;99772.72;7701043;23;20036;-89
2023/07/29 06:03:36;;;;;;;3.47;1.90;;;;;;;18.62;100.00;99776.72;7674857;23;20021;-89
2023/07/29 06:06:38;;;;;;;2.20;2.00;;;;;;;18.58;100.00;99775.47;7674796;23;20031;-89
2023/07/29 06:09:40;;;;;;;2.38;1.80;;;;;;;18.56;100.00;99778.31;7698953;23;20072;-89
2023/07/29 06:12:42;;;;;;;2.90;2.03;;;;;;;18.57;100.00;99774.66;7673842;23;20450;-89
2023/07/29 06:15:44;;;;;;;2.70;2.10;;;;;;;18.58;100.00;99771.03;7699599;23;20031;-89
2023/07/29 06:18:46;;;;;;;2.05;1.88;;;;;;;18.61;100.00;99769.88;7700221;23;20052;-89
2023/07/29 06:21:48;;;;;;;2.17;1.98;;;;;;;18.64;100.00;99770.28;7701463;23;20300;-89
2023/07/29 06:24:50;;;;;;;2.47;2.20;;;;;;;18.66;100.00;99770.91;7701865;23;20024;-88
2023/07/29 06:27:52;;;;;;;4.38;2.30;;;;;;;18.73;100.00;99771.75;7675414;23;20020;-89
2023/07/29 06:30:54;;;;;;;2.67;2.20;;;;;;;18.86;100.00;99768.44;7676598;23;20020;-88
2023/07/29 06:33:56;;;;;;;2.10;1.90;;;;;;;19.07;100.00;99788.50;7704485;23;20027;-89
2023/07/29 06:36:58;;;;;;;3.47;1.85;;;;;;;19.31;100.00;99789.00;7703466;23;20017;-88
2023/07/29 06:39:59;;;;;;;3.42;2.00;;;;;;;19.52;100.00;99782.81;7705398;23;20017;-88
2023/07/29 06:43:01;;;;;;;2.58;2.00;;;;;;;19.75;100.00;99790.34;7706292;23;20469;-88
2023/07/29 06:46:03;;;;;;;2.90;1.90;;;;;;;19.98;100.00;99785.56;7705899;23;20122;-93
2023/07/29 06:49:05;;;;;;;2.20;1.90;;;;;;;20.18;100.00;99782.13;7705981;23;20017;-93
2023/07/29 06:52:07;;;;;;;4.45;1.90;;;;;;;20.28;100.00;99772.03;7706058;23;20095;-93
2023/07/29 06:55:09;;;;;;;2.00;1.80;;;;;;;20.31;100.00;99763.72;7705054;23;20025;-93
2023/07/29 06:58:11;;;;;;;3.78;2.00;;;;;;;20.40;100.00;99759.88;7702671;23;20016;-93
2023/07/29 07:01:13;;;;;;;3.47;1.90;;;;;;;20.49;100.00;99768.34;7701343;23;20449;-93
2023/07/29 07:04:21;;;;;;;2.67;2.30;;;;;;;20.51;100.00;99773.41;7703957;23;20017;-93
2023/07/29 07:07:23;;;;;;;3.40;2.13;;;;;;;20.48;100.00;99768.56;7699650;23;20020;-93
2023/07/29 07:10:57;;;;;;;2.35;1.90;;;;;;;20.48;100.00;99765.94;7683057;23;20020;-94
2023/07/29 07:18:48;;;;;;;2.28;2.08;;;;;;;20.51;100.00;99765.53;7690119;23;20541;-94
2023/07/29 07:22:08;;;;;;;2.13;1.63;;;;;;;20.75;100.00;99749.13;7677399;23;20021;-93
2023/07/29 07:25:22;;;;;;;1.98;1.70;;;;;;;21.01;100.00;99750.84;7702506;23;20570;-94
2023/07/29 07:34:22;;;;;;;2.15;1.60;;;;;;;21.14;100.00;99744.75;7687359;23;20755;-95
2023/07/29 07:37:24;;;;;;;2.00;1.50;;;;;;;21.27;100.00;99739.41;7694143;23;20080;-95
2023/07/29 07:40:35;;;;;;;2.55;1.52;;;;;;;21.42;100.00;99735.72;7676208;23;20052;-95
2023/07/29 07:43:38;;;;;;;1.43;1.33;;;;;;;21.61;100.00;99729.50;7703629;23;20095;-95
2023/07/29 07:46:40;;;;;;;2.70;1.55;;;;;;;21.90;100.00;99711.47;7705224;23;20087;-95
2023/07/29 07:49:42;;;;;;;1.40;1.30;;;;;;;22.17;100.00;99712.03;7703831;23;20091;-95
2023/07/29 07:52:44;;;;;;;1.70;1.60;;;;;;;22.32;100.00;99696.69;7703949;23;20060;-95
2023/07/29 07:55:46;;;;;;;2.60;1.50;;;;;;;22.48;100.00;99710.34;7701814;23;20338;-94
2023/07/29 07:58:52;;;;;;;1.73;1.63;;;;;;;22.54;100.00;99709.47;7702897;23;20031;-96
2023/07/29 08:01:53;;;;;;;2.25;1.70;;;;;;;22.63;100.00;99720.53;7704348;23;20402;-94
2023/07/29 08:04:58;;;;;;;2.30;2.05;;;;;;;22.48;100.00;99720.88;7701605;23;20079;-95
2023/07/29 08:08:00;;;;;;;2.42;1.88;;;;;;;22.19;100.00;99714.47;7675251;23;20056;-96
2023/07/29 08:11:02;;;;;;;2.33;2.13;;;;;;;21.99;100.00;99704.09;7703735;23;20027;-96
2023/07/29 08:14:04;;;;;;;2.20;2.05;;;;;;;22.05;100.00;99703.22;7702273;23;20358;-96
2023/07/29 08:17:06;;;;;;;2.25;2.00;;;;;;;22.27;100.00;99696.56;7703041;23;20021;-96
2023/07/29 08:20:08;;;;;;;2.92;1.98;;;;;;;22.49;100.00;99701.41;7702328;23;20017;-96
2023/07/29 08:23:10;;;;;;;2.25;2.10;;;;;;;22.54;100.00;99694.44;7703538;23;20016;-96
2023/07/29 08:26:11;;;;;;;1.92;1.80;;;;;;;22.59;100.00;99701.69;7703090;23;20338;-96
2023/07/29 08:29:14;;;;;;;2.33;2.00;;;;;;;22.52;100.00;99700.97;7702620;23;20020;-95
2023/07/29 08:32:15;;;;;;;2.33;1.65;;;;;;;22.18;100.00;99713.63;7703170;23;20021;-95
2023/07/29 08:35:17;;;;;;;2.17;1.98;;;;;;;21.79;100.00;99712.13;7701592;23;20016;-96
2023/07/29 08:38:20;;;;;;;2.25;2.05;;;;;;;21.48;100.00;99705.88;7701489;23;20028;-96
2023/07/29 08:41:31;;;;;;;2.42;2.20;;;;;;;21.54;100.00;99698.94;7676332;23;20182;-96
2023/07/29 08:44:43;;;;;;;2.40;2.08;;;;;;;21.83;100.00;99705.44;7703379;23;20494;-96
2023/07/29 08:47:48;;;;;;;2.70;2.10;;;;;;;21.93;100.00;99713.66;7677545;23;20088;-96
2023/07/29 08:50:52;;;;;;;2.50;2.30;;;;;;;21.90;100.00;99709.63;7703475;23;20333;-96
2023/07/29 08:53:54;;;;;;;2.70;2.50;;;;;;;22.06;100.00;99712.72;7703148;23;20070;-96
2023/07/29 08:56:56;;;;;;;2.92;2.72;;;;;;;22.11;100.00;99713.72;7703416;23;20098;-96
2023/07/29 08:59:58;;;;;;;3.58;3.28;;;;;;;22.05;100.00;99716.41;7703667;23;20027;-96
2023/07/29 09:03:06;;;;;;;3.45;3.15;;;;;;;22.12;100.00;99717.94;7702676;23;20024;-96
2023/07/29 09:06:08;;;;;;;3.13;2.92;;;;;;;22.41;100.00;99706.94;7700149;23;20453;-96
2023/07/29 09:09:10;;;;;;;3.97;3.00;;;;;;;22.73;100.00;99702.34;7701176;23;20067;-95
2023/07/29 09:12:12;;;;;;;3.33;2.92;;;;;;;23.09;100.00;99693.59;7701989;23;20074;-96
2023/07/29 09:15:27;;;;;;;3.33;3.03;;;;;;;23.48;100.00;99695.88;7700256;23;20017;-96
2023/07/29 09:18:31;;;;;;;3.35;3.03;;;;;;;23.95;100.00;99702.09;7700974;23;20198;-96
2023/07/29 09:21:33;;;;;;;7.07;3.67;;;;;;;24.19;100.00;99694.94;7701179;23;20530;-95
2023/07/29 09:24:36;;;;;;;3.58;3.28;;;;;;;24.26;100.00;99693.00;7674916;23;20028;-96
2023/07/29 09:27:39;;;;;;;4.00;3.55;;;;;;;24.16;100.00;99684.84;7702200;23;20024;-96
2023/07/29 09:30:46;;;;;;;4.63;4.22;;;;;;;24.03;100.00;99687.72;7701776;23;20324;-96
2023/07/29 09:33:49;;;;;;;4.53;4.13;;;;;;;23.67;100.00;99694.78;7700486;23;20027;-96
2023/07/29 09:36:51;;;;;;;15.95;6.55;;;;;;;22.96;100.00;99705.09;7675285;23;20420;-93
2023/07/29 09:39:57;;;;;;;33.25;8.55;;;;;;;21.31;100.00;99710.81;7700012;23;20886;-89
2023/07/29 09:42:59;;;;;;;8.65;5.88;;;;;;;20.68;100.00;99729.91;7700775;23;20110;-89
2023/07/29 09:46:02;;;;;;;8.25;6.05;;;;;;;20.49;100.00;99741.25;7697723;23;20017;-91
2023/07/29 09:49:07;;;;;;;9.65;6.50;;;;;;;20.34;100.00;99731.75;7701220;23;20030;-90
2023/07/29 09:52:09;;;;;;;8.60;6.85;;;;;;;20.33;100.00;99730.16;7675285;23;20379;-91
2023/07/29 09:55:18;;;;;;;10.52;7.32;;;;;;;20.54;100.00;99739.63;7699589;23;20092;-90
2023/07/29 09:58:27;;;;;;;8.38;6.93;;;;;;;21.21;100.00;99729.69;7701038;23;20017;-90
2023/07/29 10:01:32;;;;;;;11.13;7.88;;;;;;;21.64;100.00;99712.44;7700955;23;20493;-92
2023/07/29 10:04:34;;;;;;;8.43;7.10;;;;;;;21.84;100.00;99705.22;7701682;23;20020;-92
2023/07/29 10:07:37;;;;;;;7.25;6.47;;;;;;;22.03;100.00;99705.25;7674940;23;20063;-91
2023/07/29 10:10:42;;;;;;;8.00;6.95;;;;;;;22.05;100.00;99698.75;7703329;23;20029;-92
2023/07/29 10:13:45;;;;;;;6.85;6.10;;;;;;;22.04;100.00;99686.59;7703521;23;20027;-93
2023/07/29 10:17:06;;;;;;;7.68;6.97;;;;;;;22.24;100.00;99696.19;7704028;23;20346;-93
2023/07/29 10:20:10;;;;;;;7.97;5.43;;;;;;;22.37;100.00;99703.97;7700166;23;20509;-95
2023/07/29 10:23:14;;;;;;;6.78;5.75;;;;;;;22.33;100.00;99702.78;7702909;23;20040;-95
2023/07/29 10:26:20;;;;;;;7.07;5.80;;;;;;;22.46;100.00;99702.66;7703834;23;20545;-96
2023/07/29 10:29:24;;;;;;;5.40;4.90;;;;;;;22.41;100.00;99697.22;7674998;23;20342;-96
2023/07/29 10:32:28;;;;;;;6.03;5.30;;;;;;;22.24;100.00;99690.91;7712075;23;20016;-96
2023/07/29 10:35:35;;;;;;;6.28;4.93;;;;;;;22.03;100.00;99686.81;7686620;23;20661;-96
2023/07/29 10:38:40;;;;;;;5.25;4.75;;;;;;;22.00;100.00;99695.97;7706381;23;20092;-96
2023/07/29 10:41:59;;;;;;;4.80;4.32;;;;;;;22.15;100.00;99691.16;7705376;23;20021;-96
2023/07/29 10:45:18;;;;;;;5.77;4.60;;;;;;;22.27;100.00;99687.84;7706997;23;20513;-96
2023/07/29 10:48:36;;;;;;;4.45;4.05;;;;;;;22.50;100.00;99681.91;7704388;23;20252;-96
2023/07/29 10:51:41;;;;;;;4.15;3.65;;;;;;;22.56;100.00;99688.97;7708950;23;20021;-96
2023/07/29 10:54:49;;;;;;;4.35;3.95;;;;;;;22.55;100.00;99674.13;7682827;23;20021;-96
2023/07/29 10:58:10;;;;;;;4.78;3.80;;;;;;;22.71;100.00;99676.19;7712536;23;20043;-96
2023/07/29 11:01:29;;;;;;;4.55;3.80;;;;;;;23.00;100.00;99671.16;7708966;23;20020;-96
2023/07/29 11:04:34;;;;;;;3.95;3.65;;;;;;;23.22;100.00;99666.19;7710668;23;20048;-96
2023/07/29 11:07:47;;;;;;;2.60;2.40;;;;;;;23.36;100.00;99677.38;7710309;23;20489;-96
2023/07/29 11:11:11;;;;;;;2.97;1.98;;;;;;;23.39;100.00;99680.38;7684842;23;20025;-96
2023/07/29 11:14:13;;;;;;;1.75;1.65;;;;;;;23.47;100.00;99667.88;7682582;23;20028;-96
2023/07/29 11:17:16;;;;;;;2.83;1.70;;;;;;;23.70;100.00;99673.22;7681483;23;20095;-96
2023/07/29 11:20:20;;;;;;;2.10;1.90;;;;;;;23.99;100.00;99676.78;7706494;23;20047;-96
2023/07/29 11:23:29;;;;;;;1.50;1.40;;;;;;;24.30;100.00;99685.41;7712032;23;20023;-96
2023/07/29 11:26:37;;;;;;;2.75;1.50;;;;;;;23.84;100.00;99689.66;7722928;23;20039;-96
2023/07/29 11:29:43;;;;;;;1.55;1.42;;;;;;;23.62;100.00;99678.81;7703435;23;20510;-96
2023/07/29 11:32:46;;;;;;;2.35;1.52;;;;;;;23.84;100.00;99682.53;7718621;23;20083;-96
2023/07/29 11:35:52;;;;;;;1.45;1.35;;;;;;;24.23;100.00;99682.88;7719871;23;20017;-96
2023/07/29 11:38:57;;;;;;;2.10;1.30;;;;;;;24.46;100.00;99689.22;7707585;23;20024;-96
2023/07/29 11:41:59;;;;;;;1.38;1.27;;;;;;;24.00;100.00;99694.28;7686439;23;20063;-96
2023/07/29 11:45:03;;;;;;;2.20;1.30;;;;;;;23.67;100.00;99707.19;7714558;23;20032;-95
2023/07/29 11:48:08;;;;;;;1.70;1.00;;;;;;;23.59;100.00;99701.19;7719010;23;20076;-96
2023/07/29 11:51:11;;;;;;;1.42;0.90;;;;;;;23.46;100.00;99696.13;7720107;23;20055;-96
2023/07/29 11:54:14;;;;;;;0.82;0.80;;;;;;;23.45;100.00;99705.06;7720762;23;20020;-96
2023/07/29 11:57:19;;;;;;;1.10;1.00;;;;;;;23.66;100.00;99703.75;7718993;23;20116;-96
2023/07/29 12:00:22;;;;;;;3.85;1.33;;;;;;;23.67;100.00;99704.56;7714532;23;20398;-96
2023/07/29 12:03:25;;;;;;;1.25;0.90;;;;;;;23.89;100.00;99707.50;7713614;23;20029;-96
2023/07/29 12:06:33;;;;;;;1.00;0.90;;;;;;;24.24;100.00;99705.63;7719540;23;20044;-96
2023/07/29 12:09:40;;;;;;;1.00;0.88;;;;;;;24.32;100.00;99701.84;7701778;23;19996;-96
2023/07/29 12:12:49;;;;;;;1.25;0.90;;;;;;;24.48;100.00;99718.88;7726981;23;20024;-96
2023/07/29 12:15:51;;;;;;;1.58;0.85;;;;;;;24.73;100.00;99713.31;7700184;23;20425;-96
2023/07/29 12:19:03;;;;;;;0.90;0.80;;;;;;;24.97;100.00;99708.75;7729749;23;20039;-96
2023/07/29 12:22:10;;;;;;;1.17;1.00;;;;;;;25.13;100.00;99717.78;7738342;22;20019;-96
2023/07/29 12:25:13;;;;;;;0.98;0.75;;;;;;;25.06;100.00;99720.56;7740760;22;20095;-96
2023/07/29 12:28:15;;;;;;;0.85;0.85;;;;;;;24.93;100.00;99720.84;7726345;23;20024;-96
2023/07/29 12:31:17;;;;;;;1.50;1.10;;;;;;;24.47;100.00;99711.97;7701634;23;20860;-96
2023/07/29 12:34:21;;;;;;;0.70;0.70;;;;;;;23.99;100.00;99716.44;7703710;23;20016;-96
2023/07/29 12:37:32;;;;;;;1.25;1.00;;;;;;;24.07;100.00;99708.19;7702773;23;20100;-96
2023/07/29 12:40:39;;;;;;;0.82;0.80;;;;;;;24.05;100.00;99710.25;7701440;23;20366;-96
2023/07/29 12:43:43;;;;;;;0.70;0.70;;;;;;;24.15;100.00;99712.34;7700203;23;20037;-96
2023/07/29 12:46:45;;;;;;;0.60;0.60;;;;;;;24.63;100.00;99711.25;7701623;23;20024;-96
2023/07/29 12:49:48;;;;;;;3.38;0.73;;;;;;;24.83;100.00;99708.22;7701986;23;20021;-96
2023/07/29 12:52:50;;;;;;;2.13;0.80;;;;;;;24.46;100.00;99702.44;7701481;23;20020;-96
2023/07/29 12:55:52;;;;;;;0.93;0.82;;;;;;;24.48;100.00;99701.16;7702322;23;20021;-96
2023/07/29 12:58:55;;;;;;;1.15;0.90;;;;;;;24.55;100.00;99700.25;7699410;23;20186;-96
2023/07/29 13:01:57;;;;;;;0.90;0.82;;;;;;;24.83;100.00;99699.47;7699944;23;20204;-96
2023/07/29 13:04:59;;;;;;;1.00;0.70;;;;;;;24.87;100.00;99690.84;7701938;23;20016;-96
2023/07/29 13:08:01;;;;;;;0.90;0.80;;;;;;;25.13;100.00;99692.09;7700317;23;20032;-96
2023/07/29 13:11:04;;;;;;;2.17;0.90;;;;;;;25.09;100.00;99690.97;7700860;23;20099;-96
2023/07/29 13:14:06;;;;;;;1.10;0.75;;;;;;;25.41;100.00;99681.72;7700999;23;20020;-96
2023/07/29 13:17:08;;;;;;;0.90;0.80;;;;;;;25.95;100.00;99690.03;7702593;23;20021;-96
2023/07/29 13:20:11;;;;;;;5.68;0.70;;;;;;;26.75;100.00;99693.22;7702061;23;20044;-96
2023/07/29 13:23:13;;;;;;;0.70;0.70;;;;;;;27.13;100.00;99702.13;7716759;23;20043;-96
2023/07/29 13:26:15;;;;;;;1.55;0.80;;;;;;;27.26;100.00;99688.47;7737739;23;20109;-96
2023/07/29 13:29:20;;;;;;;1.30;0.90;;;;;;;26.89;100.00;99696.31;7739817;23;20465;-96
2023/07/29 13:32:22;;;;;;;1.27;0.45;;;;;;;26.17;100.00;99698.03;7739807;23;20020;-96
2023/07/29 13:35:24;;;;;;;0.65;0.60;;;;;;;25.43;100.00;99696.34;7742989;23;20017;-96
2023/07/29 13:38:26;;;;;;;0.68;0.60;;;;;;;25.29;100.00;99692.38;7740328;23;20027;-96
2023/07/29 13:41:28;;;;;;;0.73;0.70;;;;;;;25.66;100.00;99691.94;7712948;23;20394;-96
2023/07/29 13:44:30;;;;;;;0.93;0.77;;;;;;;25.99;100.00;99691.97;7712802;23;20103;-96
2023/07/29 13:47:32;;;;;;;0.70;0.70;;;;;;;26.01;100.00;99694.34;7743419;23;20020;-96
2023/07/29 13:50:35;;;;;;;0.95;0.70;;;;;;;26.01;100.00;99691.69;7741207;23;20024;-96
2023/07/29 13:53:37;;;;;;;1.30;0.50;;;;;;;26.24;100.00;99700.53;7740764;23;20091;-96
2023/07/29 13:56:41;;;;;;;1.00;0.80;;;;;;;26.72;100.00;99694.53;7742441;23;20022;-96
2023/07/29 13:59:43;;;;;;;1.05;0.73;;;;;;;27.12;100.00;99695.22;7742420;23;20030;-96
2023/07/29 14:02:47;;;;;;;1.90;1.10;;;;;;;27.48;100.00;99693.72;7740020;23;20034;-96
2023/07/29 14:05:49;;;;;;;0.75;0.70;;;;;;;27.00;100.00;99692.69;7713713;23;20066;-96
2023/07/29 14:08:51;;;;;;;1.20;0.93;;;;;;;26.49;100.00;99694.75;7740515;23;20028;-96
2023/07/29 14:12:12;;;;;;;0.90;0.80;;;;;;;26.43;100.00;99688.56;7742588;23;20627;-96
2023/07/29 14:15:17;;;;;;;1.30;0.88;;;;;;;26.65;100.00;99712.50;7746312;23;20405;-97
2023/07/29 14:18:19;;;;;;;1.17;0.90;;;;;;;26.68;100.00;99708.53;7745731;23;20020;-96
2023/07/29 14:21:26;;;;;;;1.10;0.98;;;;;;;26.59;100.00;99711.63;7714235;23;20027;-96
2023/07/29 14:24:29;;;;;;;0.75;0.75;;;;;;;26.20;100.00;99708.97;7715202;23;20020;-96